Time;durP1;ratioP1;P1;durP2;ratioP2;P2;SDS_P1;SDS_P2;PMS_P1;PMS_P2;Temp;Humidity;BMP_temperature;BMP_pressure;BME280_temperature;BME280_humidity;BME280_pressure;Samples;Min_cycle;Max_cycle;Signal;HPM_P1;HPM_P2
2022/08/22 00:04:32;;;;;;;5.85;2.50;;;;;;;;;;9947448;28;20494;-59
2022/08/22 00:09:46;;;;;;;5.18;2.92;;;;;;;;;;9930719;28;20102;-59
2022/08/22 00:15:34;;;;;;;4.70;4.13;;;;;;;;;;9945895;28;20147;-58
2022/08/22 00:21:04;;;;;;;3.10;2.85;;;;;;;;;;9870354;28;20059;-59
2022/08/22 00:26:01;;;;;;;4.80;2.53;;;;;;;;;;9945633;28;20078;-58
2022/08/22 00:31:23;;;;;;;3.47;2.60;;;;;;;;;;9943910;28;20046;-59
2022/08/22 00:36:51;;;;;;;4.53;2.63;;;;;;;;;;9954109;28;20047;-60
2022/08/22 00:42:21;;;;;;;2.75;2.17;;;;;;;;;;9937970;28;20079;-60
2022/08/22 00:47:50;;;;;;;3.85;2.10;;;;;;;;;;9937501;28;20051;-59
2022/08/22 00:53:04;;;;;;;6.47;3.92;;;;;;;;;;9939595;28;20490;-59
2022/08/22 00:58:31;;;;;;;5.00;4.38;;;;;;;;;;9941552;28;20054;-59
2022/08/22 01:03:26;;;;;;;3.90;3.53;;;;;;;;;;9929859;28;20054;-59
2022/08/22 01:08:38;;;;;;;5.03;4.03;;;;;;;;;;9942827;28;20054;-59
2022/08/22 01:13:53;;;;;;;4.15;3.60;;;;;;;;;;9935220;28;20046;-59
2022/08/22 01:19:00;;;;;;;5.90;3.83;;;;;;;;;;9941494;28;20442;-60
2022/08/22 01:25:16;;;;;;;4.18;3.78;;;;;;;;;;9945863;28;20051;-59
2022/08/22 01:30:17;;;;;;;5.32;4.63;;;;;;;;;;9944303;28;20042;-58
2022/08/22 01:35:25;;;;;;;6.63;5.53;;;;;;;;;;9937338;28;20043;-60
2022/08/22 01:40:21;;;;;;;5.68;4.43;;;;;;;;;;9947510;28;20055;-59
2022/08/22 01:45:33;;;;;;;6.25;5.70;;;;;;;;;;9949957;28;20034;-60
2022/08/22 01:50:38;;;;;;;6.90;5.63;;;;;;;;;;9949875;28;20039;-59
2022/08/22 01:55:57;;;;;;;5.88;5.32;;;;;;;;;;9950085;28;20117;-59
2022/08/22 02:01:07;;;;;;;5.55;5.03;;;;;;;;;;9946423;28;20125;-59
2022/08/22 02:06:06;;;;;;;5.50;4.78;;;;;;;;;;9949549;28;20043;-59
2022/08/22 02:11:09;;;;;;;5.50;4.97;;;;;;;;;;9949211;28;20162;-59
2022/08/22 02:16:36;;;;;;;4.93;4.32;;;;;;;;;;9948288;28;20050;-59
2022/08/22 02:21:52;;;;;;;6.05;4.80;;;;;;;;;;9939997;28;20058;-58
2022/08/22 02:27:24;;;;;;;8.52;5.50;;;;;;;;;;9934466;28;20093;-59
2022/08/22 02:32:55;;;;;;;6.03;5.53;;;;;;;;;;9906792;28;20109;-58
2022/08/22 02:38:24;;;;;;;6.57;5.53;;;;;;;;;;9939558;28;20051;-59
2022/08/22 02:43:27;;;;;;;6.32;5.72;;;;;;;;;;9933574;28;20067;-59
2022/08/22 02:48:28;;;;;;;5.90;4.65;;;;;;;;;;9948972;28;20061;-59
2022/08/22 02:53:26;;;;;;;5.40;4.90;;;;;;;;;;9932559;28;20097;-58
2022/08/22 02:58:43;;;;;;;7.18;5.22;;;;;;;;;;9932098;28;20054;-59
2022/08/22 03:03:40;;;;;;;9.02;6.22;;;;;;;;;;9955858;28;20082;-59
2022/08/22 03:08:41;;;;;;;7.20;4.75;;;;;;;;;;9956436;28;20078;-59
2022/08/22 03:13:54;;;;;;;7.95;5.55;;;;;;;;;;9938501;28;20073;-59
2022/08/22 03:18:54;;;;;;;5.95;5.45;;;;;;;;;;9956158;28;20046;-59
2022/08/22 03:23:52;;;;;;;4.65;4.25;;;;;;;;;;9956071;28;20055;-59
2022/08/22 03:29:02;;;;;;;5.45;4.60;;;;;;;;;;9955605;28;20051;-59
2022/08/22 03:34:13;;;;;;;4.90;4.45;;;;;;;;;;9922901;28;20445;-58
2022/08/22 03:39:15;;;;;;;5.05;4.55;;;;;;;;;;9954702;28;20451;-58
2022/08/22 03:44:15;;;;;;;4.50;4.10;;;;;;;;;;9955068;28;20073;-59
2022/08/22 03:49:14;;;;;;;5.45;4.20;;;;;;;;;;9952455;28;20042;-59
2022/08/22 03:54:16;;;;;;;5.90;3.65;;;;;;;;;;9954613;28;20127;-59
2022/08/22 03:59:24;;;;;;;4.85;3.97;;;;;;;;;;9937265;28;20054;-58
2022/08/22 04:04:47;;;;;;;8.38;3.58;;;;;;;;;;9950827;28;20459;-58
2022/08/22 04:10:13;;;;;;;6.38;4.97;;;;;;;;;;9947266;28;20066;-58
2022/08/22 04:15:44;;;;;;;5.88;4.32;;;;;;;;;;9951033;28;20061;-59
2022/08/22 04:21:07;;;;;;;6.78;5.25;;;;;;;;;;9814302;28;20881;-58
2022/08/22 04:26:28;;;;;;;5.40;4.82;;;;;;;;;;9953455;28;20457;-58
2022/08/22 04:31:29;;;;;;;6.05;5.20;;;;;;;;;;9948053;28;20055;-59
2022/08/22 04:36:44;;;;;;;4.70;4.30;;;;;;;;;;9953526;28;20046;-58
2022/08/22 04:41:42;;;;;;;5.38;4.90;;;;;;;;;;9949987;28;20413;-57
2022/08/22 04:46:39;;;;;;;4.75;4.35;;;;;;;;;;9939215;28;20059;-58
2022/08/22 04:51:34;;;;;;;;;;;;;;;;;;9944970;28;20042;-58
2022/08/22 04:56:54;;;;;;;7.10;6.18;;;;;;;;;;9930729;28;20369;-59
2022/08/22 05:01:53;;;;;;;6.22;5.63;;;;;;;;;;9934348;28;20050;-59
2022/08/22 05:07:10;;;;;;;7.60;5.88;;;;;;;;;;9951248;28;20055;-58
2022/08/22 05:12:24;;;;;;;7.20;5.45;;;;;;;;;;9939424;28;20050;-59
2022/08/22 05:17:27;;;;;;;5.45;4.57;;;;;;;;;;9951979;28;20126;-59
2022/08/22 05:22:24;;;;;;;6.75;4.22;;;;;;;;;;9937394;28;20042;-59
2022/08/22 05:27:23;;;;;;;7.63;3.93;;;;;;;;;;9947863;28;20055;-59
2022/08/22 05:32:33;;;;;;;;;;;;;;;;;;9935010;28;20058;-59
2022/08/22 05:37:37;;;;;;;4.97;3.70;;;;;;;;;;9934493;28;19961;-58
2022/08/22 05:42:32;;;;;;;7.00;3.90;;;;;;;;;;9949997;28;20062;-58
2022/08/22 05:47:39;;;;;;;5.15;4.65;;;;;;;;;;9950155;28;20047;-58
2022/08/22 05:52:54;;;;;;;4.45;4.05;;;;;;;;;;9937662;28;20490;-58
2022/08/22 05:58:14;;;;;;;5.72;4.20;;;;;;;;;;9950518;28;20058;-58
2022/08/22 06:03:15;;;;;;;5.95;4.00;;;;;;;;;;9932509;28;20090;-59
2022/08/22 06:08:28;;;;;;;8.27;4.57;;;;;;;;;;9938020;28;20051;-59
2022/08/22 06:13:41;;;;;;;5.72;3.97;;;;;;;;;;9951286;28;20509;-59
2022/08/22 06:18:40;;;;;;;7.35;3.95;;;;;;;;;;9945659;28;20077;-59
2022/08/22 06:23:39;;;;;;;7.18;3.35;;;;;;;;;;9937177;28;20051;-59
2022/08/22 06:28:41;;;;;;;5.60;3.30;;;;;;;;;;9943378;28;20047;-59
2022/08/22 06:34:05;;;;;;;6.88;3.42;;;;;;;;;;9944173;28;20051;-59
2022/08/22 06:39:22;;;;;;;3.30;3.00;;;;;;;;;;9945442;28;20047;-59
2022/08/22 06:44:37;;;;;;;3.30;2.65;;;;;;;;;;9945226;28;20071;-59
2022/08/22 06:49:34;;;;;;;7.15;3.00;;;;;;;;;;9943546;28;20799;-59
2022/08/22 06:54:37;;;;;;;5.88;3.25;;;;;;;;;;9948334;28;20379;-59
2022/08/22 06:59:35;;;;;;;4.25;3.28;;;;;;;;;;9948793;28;20058;-61
2022/08/22 07:04:30;;;;;;;6.03;3.30;;;;;;;;;;9948977;28;20054;-59
2022/08/22 07:09:54;;;;;;;5.82;3.20;;;;;;;;;;9945156;28;20058;-59
2022/08/22 07:14:50;;;;;;;4.65;3.00;;;;;;;;;;9922254;28;20050;-59
2022/08/22 07:19:58;;;;;;;5.60;3.28;;;;;;;;;;9934756;28;20406;-59
2022/08/22 07:25:09;;;;;;;6.10;3.50;;;;;;;;;;9922298;28;20054;-59
2022/08/22 07:30:06;;;;;;;4.43;3.90;;;;;;;;;;9935945;28;20082;-59
2022/08/22 07:35:36;;;;;;;8.25;3.53;;;;;;;;;;9932530;28;20083;-59
2022/08/22 07:40:32;;;;;;;5.28;3.17;;;;;;;;;;9948619;28;20054;-59
2022/08/22 07:45:34;;;;;;;4.00;2.80;;;;;;;;;;9971972;28;20157;-59
2022/08/22 07:50:35;;;;;;;5.78;3.03;;;;;;;;;;9968951;28;20058;-58
2022/08/22 07:55:29;;;;;;;6.22;2.95;;;;;;;;;;9938749;28;20130;-59
2022/08/22 08:00:27;;;;;;;4.60;2.42;;;;;;;;;;9968071;28;20457;-59
2022/08/22 08:05:23;;;;;;;3.28;2.47;;;;;;;;;;9964912;28;20050;-58
2022/08/22 08:10:22;;;;;;;2.80;2.25;;;;;;;;;;9955979;28;20050;-60
2022/08/22 08:15:21;;;;;;;6.53;2.38;;;;;;;;;;9938292;28;20117;-60
2022/08/22 08:20:19;;;;;;;4.85;2.40;;;;;;;;;;9944206;28;20129;-61
2022/08/22 08:25:16;;;;;;;3.60;2.63;;;;;;;;;;9969647;28;20054;-59
2022/08/22 08:30:16;;;;;;;6.10;2.20;;;;;;;;;;9948892;28;20050;-59
2022/08/22 08:35:24;;;;;;;5.22;2.70;;;;;;;;;;9945445;28;20077;-59
2022/08/22 08:40:30;;;;;;;3.95;2.50;;;;;;;;;;9947600;28;20113;-59
2022/08/22 08:45:48;;;;;;;3.15;2.42;;;;;;;;;;9940930;28;20055;-59
2022/08/22 08:50:50;;;;;;;3.45;2.90;;;;;;;;;;9932440;28;20055;-60
2022/08/22 08:55:53;;;;;;;7.15;4.18;;;;;;;;;;9924765;28;20078;-60
2022/08/22 09:01:05;;;;;;;4.20;3.20;;;;;;;;;;9940431;28;20042;-57
2022/08/22 09:06:08;;;;;;;3.85;3.42;;;;;;;;;;9941894;28;20061;-60
2022/08/22 09:11:18;;;;;;;6.13;3.00;;;;;;;;;;9941948;28;20502;-58
2022/08/22 09:16:49;;;;;;;4.45;2.80;;;;;;;;;;9933478;28;20166;-58
2022/08/22 09:22:01;;;;;;;5.50;2.30;;;;;;;;;;9920949;28;20059;-59
2022/08/22 09:27:00;;;;;;;2.60;2.22;;;;;;;;;;9933151;28;20462;-59
2022/08/22 09:32:02;;;;;;;4.32;1.90;;;;;;;;;;9935855;28;20121;-59
2022/08/22 09:37:15;;;;;;;3.25;1.50;;;;;;;;;;9934573;28;20117;-58
2022/08/22 09:42:42;;;;;;;6.35;1.90;;;;;;;;;;9924623;28;20059;-58
2022/08/22 09:47:55;;;;;;;4.60;1.50;;;;;;;;;;9935417;28;20090;-59
2022/08/22 09:53:35;;;;;;;5.57;2.67;;;;;;;;;;9933508;28;20574;-59
2022/08/22 09:58:32;;;;;;;4.57;1.52;;;;;;;;;;9924865;28;20071;-57
2022/08/22 10:03:50;;;;;;;3.90;1.33;;;;;;;;;;9935046;28;20585;-58
2022/08/22 10:08:50;;;;;;;2.53;1.27;;;;;;;;;;9924485;28;20578;-57
2022/08/22 10:13:58;;;;;;;4.05;1.05;;;;;;;;;;9932550;28;20695;-57
2022/08/22 10:18:56;;;;;;;4.07;1.17;;;;;;;;;;9931491;28;20426;-58
2022/08/22 10:24:30;;;;;;;3.13;1.40;;;;;;;;;;9930416;28;20170;-59
2022/08/22 10:29:33;;;;;;;2.22;0.98;;;;;;;;;;9868135;28;20042;-58
2022/08/22 10:34:29;;;;;;;0.95;0.85;;;;;;;;;;9932552;28;20058;-58
2022/08/22 10:39:27;;;;;;;1.02;0.80;;;;;;;;;;9922556;28;20085;-58
2022/08/22 10:45:10;;;;;;;1.42;0.75;;;;;;;;;;9923504;28;20066;-58
2022/08/22 10:50:17;;;;;;;4.05;0.77;;;;;;;;;;9902214;28;20097;-58
2022/08/22 10:55:16;;;;;;;4.20;0.90;;;;;;;;;;9908321;28;20426;-58
2022/08/22 11:00:16;;;;;;;3.17;0.63;;;;;;;;;;9905043;28;20097;-58
2022/08/22 11:05:20;;;;;;;;;;;;;;;;;;9928925;28;20066;-58
2022/08/22 11:10:52;;;;;;;0.82;0.47;;;;;;;;;;9938023;28;19922;-58
2022/08/22 11:16:09;;;;;;;0.50;0.50;;;;;;;;;;9939791;28;20695;-58
2022/08/22 11:21:09;;;;;;;1.33;0.70;;;;;;;;;;9930189;28;20772;-58
2022/08/22 11:26:14;;;;;;;2.83;0.45;;;;;;;;;;9908591;28;20059;-58
2022/08/22 11:32:06;;;;;;;1.52;0.50;;;;;;;;;;9937729;28;20117;-58
2022/08/22 11:37:00;;;;;;;1.10;0.40;;;;;;;;;;9939846;28;20508;-58
2022/08/22 11:42:07;;;;;;;0.95;0.75;;;;;;;;;;9930657;28;20062;-59
2022/08/22 11:47:01;;;;;;;1.08;0.50;;;;;;;;;;9935747;28;20074;-58
2022/08/22 11:52:07;;;;;;;0.60;0.52;;;;;;;;;;9922052;28;20061;-58
2022/08/22 11:57:15;;;;;;;3.45;0.45;;;;;;;;;;9938253;28;20154;-58
2022/08/22 12:02:29;;;;;;;2.63;0.47;;;;;;;;;;9931368;28;20039;-59
2022/08/22 12:07:30;;;;;;;0.52;0.35;;;;;;;;;;9926550;28;20059;-58
2022/08/22 12:12:33;;;;;;;0.68;0.43;;;;;;;;;;9955179;28;20409;-59
2022/08/22 12:17:50;;;;;;;2.63;0.38;;;;;;;;;;9936593;28;20055;-58
2022/08/22 12:23:34;;;;;;;1.05;0.40;;;;;;;;;;9929590;28;20138;-59
2022/08/22 12:29:00;;;;;;;3.25;0.30;;;;;;;;;;9932334;28;20724;-59
2022/08/22 12:33:58;;;;;;;1.42;0.50;;;;;;;;;;9938216;28;20501;-58
2022/08/22 12:39:09;;;;;;;0.43;0.30;;;;;;;;;;9942143;28;20050;-59
2022/08/22 12:44:23;;;;;;;2.83;0.40;;;;;;;;;;9935143;28;20099;-58
2022/08/22 12:49:26;;;;;;;0.85;0.43;;;;;;;;;;9939824;28;20526;-58
2022/08/22 12:54:25;;;;;;;2.70;0.50;;;;;;;;;;9936358;28;20047;-58
2022/08/22 12:59:41;;;;;;;3.75;1.13;;;;;;;;;;9945611;28;20054;-58
2022/08/22 13:04:36;;;;;;;3.83;0.50;;;;;;;;;;9960945;28;20502;-59
2022/08/22 13:09:34;;;;;;;1.05;0.40;;;;;;;;;;9934029;28;20055;-58
2022/08/22 13:14:30;;;;;;;3.10;0.60;;;;;;;;;;9950746;28;20054;-59
2022/08/22 13:19:31;;;;;;;0.77;0.50;;;;;;;;;;9943540;28;20043;-59
2022/08/22 13:24:49;;;;;;;2.63;0.60;;;;;;;;;;9934207;28;20058;-58
2022/08/22 13:29:52;;;;;;;2.00;0.57;;;;;;;;;;9944158;28;20458;-59
2022/08/22 13:34:53;;;;;;;1.17;0.80;;;;;;;;;;9945527;28;20054;-57
2022/08/22 13:39:48;;;;;;;1.85;0.55;;;;;;;;;;9928233;28;20051;-59
2022/08/22 13:44:47;;;;;;;0.52;0.52;;;;;;;;;;9925309;28;20105;-60
2022/08/22 13:50:12;;;;;;;2.83;0.40;;;;;;;;;;9930310;28;20491;-58
2022/08/22 13:55:27;;;;;;;1.60;0.52;;;;;;;;;;9941980;28;20093;-58
2022/08/22 14:00:36;;;;;;;1.40;0.75;;;;;;;;;;9946096;28;20038;-59
2022/08/22 14:05:54;;;;;;;5.88;0.65;;;;;;;;;;9944796;28;20505;-58
2022/08/22 14:11:11;;;;;;;0.88;0.52;;;;;;;;;;9936397;28;20489;-59
2022/08/22 14:16:09;;;;;;;0.80;0.80;;;;;;;;;;9930122;28;20051;-59
2022/08/22 14:21:43;;;;;;;0.65;0.57;;;;;;;;;;9942553;28;20039;-59
2022/08/22 14:26:39;;;;;;;0.47;0.47;;;;;;;;;;9940900;28;20034;-59
2022/08/22 14:31:40;;;;;;;0.63;0.40;;;;;;;;;;9932362;28;20069;-59
2022/08/22 14:36:40;;;;;;;0.40;0.40;;;;;;;;;;9941149;28;20058;-58
2022/08/22 14:41:43;;;;;;;0.82;0.60;;;;;;;;;;9933910;28;20050;-59
2022/08/22 14:47:01;;;;;;;0.60;0.45;;;;;;;;;;9928441;28;20126;-58
2022/08/22 14:52:04;;;;;;;5.03;0.68;;;;;;;;;;9925933;28;20059;-59
2022/08/22 14:57:05;;;;;;;0.80;0.50;;;;;;;;;;9952917;28;20062;-60
2022/08/22 15:02:09;;;;;;;0.68;0.60;;;;;;;;;;9964980;28;20069;-60
2022/08/22 15:07:04;;;;;;;1.05;0.63;;;;;;;;;;9944162;28;20097;-61
2022/08/22 15:11:58;;;;;;;2.45;0.52;;;;;;;;;;9941176;28;20053;-61
2022/08/22 15:17:01;;;;;;;1.48;0.98;;;;;;;;;;9961373;28;20048;-60
2022/08/22 15:22:11;;;;;;;3.63;0.80;;;;;;;;;;9975140;28;20077;-61
2022/08/22 15:27:06;;;;;;;3.08;0.45;;;;;;;;;;9972864;28;20062;-60
2022/08/22 15:32:01;;;;;;;1.67;0.55;;;;;;;;;;9964951;28;20068;-60
2022/08/22 15:37:19;;;;;;;0.73;0.70;;;;;;;;;;9964152;28;20058;-61
2022/08/22 15:42:24;;;;;;;0.68;0.60;;;;;;;;;;9958608;28;20581;-60
2022/08/22 15:47:32;;;;;;;2.60;0.70;;;;;;;;;;9937637;28;20528;-60
2022/08/22 15:53:12;;;;;;;1.52;0.90;;;;;;;;;;9965580;28;20066;-60
2022/08/22 15:58:09;;;;;;;0.60;0.60;;;;;;;;;;9878687;28;20051;-60
2022/08/22 16:03:12;;;;;;;1.05;0.50;;;;;;;;;;9966951;28;20051;-61
2022/08/22 16:08:15;;;;;;;0.80;0.65;;;;;;;;;;9968102;28;20047;-61
2022/08/22 16:13:32;;;;;;;3.28;0.90;;;;;;;;;;9953206;28;20058;-60
2022/08/22 16:18:32;;;;;;;0.88;0.57;;;;;;;;;;9954223;28;20065;-60
2022/08/22 16:23:25;;;;;;;1.10;0.93;;;;;;;;;;9969293;28;20054;-60
2022/08/22 16:28:50;;;;;;;1.30;0.80;;;;;;;;;;9946039;28;20093;-58
2022/08/22 16:33:50;;;;;;;2.28;0.80;;;;;;;;;;9935771;28;20055;-60
2022/08/22 16:38:47;;;;;;;0.60;0.60;;;;;;;;;;9937198;28;20046;-60
2022/08/22 16:43:42;;;;;;;2.10;0.57;;;;;;;;;;9981474;28;20062;-60
2022/08/22 16:48:46;;;;;;;1.13;0.70;;;;;;;;;;9945637;28;20121;-60
2022/08/22 16:53:38;;;;;;;1.77;0.75;;;;;;;;;;9943110;28;20052;-59
2022/08/22 16:58:55;;;;;;;0.60;0.50;;;;;;;;;;9945766;28;20059;-59
2022/08/22 17:04:49;;;;;;;0.80;0.70;;;;;;;;;;9942897;28;20050;-58
2022/08/22 17:09:43;;;;;;;;;;;;;;;;;;9928777;28;20074;-58
2022/08/22 17:14:52;;;;;;;1.48;0.80;;;;;;;;;;9936315;28;19926;-59
2022/08/22 17:19:54;;;;;;;0.80;0.57;;;;;;;;;;9941841;28;20047;-59
2022/08/22 17:25:10;;;;;;;4.20;0.90;;;;;;;;;;9936049;28;20046;-60
2022/08/22 17:30:10;;;;;;;0.63;0.52;;;;;;;;;;9937362;28;20078;-60
2022/08/22 17:35:03;;;;;;;1.48;0.80;;;;;;;;;;9947323;28;20533;-60
2022/08/22 17:40:36;;;;;;;1.50;0.88;;;;;;;;;;9939830;28;20074;-59
2022/08/22 17:45:32;;;;;;;1.67;1.02;;;;;;;;;;9926324;28;20086;-59
2022/08/22 17:50:34;;;;;;;1.90;0.75;;;;;;;;;;9941658;28;20057;-59
2022/08/22 17:55:55;;;;;;;1.83;0.70;;;;;;;;;;9923311;28;20046;-60
2022/08/22 18:00:52;;;;;;;1.60;0.80;;;;;;;;;;9935828;28;20109;-59
2022/08/22 18:05:52;;;;;;;1.60;1.05;;;;;;;;;;9925449;28;20059;-60
2022/08/22 18:10:57;;;;;;;2.28;0.60;;;;;;;;;;9934699;28;20054;-60
2022/08/22 18:16:17;;;;;;;1.42;0.95;;;;;;;;;;9932857;28;20061;-60
2022/08/22 18:21:20;;;;;;;5.72;0.82;;;;;;;;;;9934171;28;20106;-59
2022/08/22 18:26:40;;;;;;;1.30;1.00;;;;;;;;;;9936002;28;20050;-60
2022/08/22 18:31:48;;;;;;;1.90;1.20;;;;;;;;;;9944141;28;20063;-60
2022/08/22 18:36:56;;;;;;;2.10;1.10;;;;;;;;;;9927300;28;20050;-60
2022/08/22 18:42:07;;;;;;;1.52;1.02;;;;;;;;;;9928452;28;20325;-60
2022/08/22 18:47:10;;;;;;;2.63;1.30;;;;;;;;;;9946536;28;20406;-61
2022/08/22 18:52:12;;;;;;;9.27;1.63;;;;;;;;;;9945792;28;20069;-60
2022/08/22 18:57:54;;;;;;;1.67;1.30;;;;;;;;;;9947561;28;20109;-60
2022/08/22 19:03:10;;;;;;;2.00;1.40;;;;;;;;;;9829454;28;20861;-61
2022/08/22 19:08:18;;;;;;;3.72;1.30;;;;;;;;;;9939157;28;20077;-61
2022/08/22 19:13:15;;;;;;;;;;;;;;;;;;9944960;28;20073;-60
2022/08/22 19:18:11;;;;;;;5.97;1.90;;;;;;;;;;9947023;28;19926;-60
2022/08/22 19:23:39;;;;;;;4.28;1.90;;;;;;;;;;9944832;28;20074;-60
2022/08/22 19:28:37;;;;;;;3.08;1.73;;;;;;;;;;9937152;28;20074;-58
2022/08/22 19:33:40;;;;;;;1.80;1.47;;;;;;;;;;9938436;28;20069;-58
2022/08/22 19:38:56;;;;;;;5.43;1.60;;;;;;;;;;9925648;28;20454;-58
2022/08/22 19:43:50;;;;;;;5.22;1.80;;;;;;;;;;9944311;28;20059;-59
2022/08/22 19:48:45;;;;;;;4.78;2.15;;;;;;;;;;9946071;28;20051;-58
2022/08/22 19:53:47;;;;;;;4.07;1.83;;;;;;;;;;9949568;28;20387;-58
2022/08/22 19:59:15;;;;;;;4.22;1.70;;;;;;;;;;9930005;28;20074;-58
2022/08/22 20:04:26;;;;;;;2.30;1.83;;;;;;;;;;9942913;28;20518;-58
2022/08/22 20:09:46;;;;;;;4.47;1.60;;;;;;;;;;9937508;28;20062;-58
2022/08/22 20:14:42;;;;;;;1.45;1.25;;;;;;;;;;9919166;28;20043;-58
2022/08/22 20:19:49;;;;;;;8.32;1.63;;;;;;;;;;9920409;28;20414;-58
2022/08/22 20:25:30;;;;;;;2.03;1.35;;;;;;;;;;9919665;28;20770;-59
2022/08/22 20:30:41;;;;;;;2.83;1.48;;;;;;;;;;9930494;28;20090;-60
2022/08/22 20:35:57;;;;;;;1.23;1.13;;;;;;;;;;9936611;28;20054;-60
2022/08/22 20:41:10;;;;;;;1.95;1.30;;;;;;;;;;9911906;28;20753;-61
2022/08/22 20:46:32;;;;;;;8.98;1.27;;;;;;;;;;9913391;28;20061;-62
2022/08/22 20:51:27;;;;;;;;;;;;;;;;;;9922402;28;20435;-61
2022/08/22 20:56:43;;;;;;;2.88;1.50;;;;;;;;;;9932109;28;20316;-62
2022/08/22 21:01:44;;;;;;;4.68;1.13;;;;;;;;;;9915793;28;20460;-61
2022/08/22 21:06:38;;;;;;;1.50;1.20;;;;;;;;;;9934991;28;20055;-63
2022/08/22 21:11:41;;;;;;;2.85;1.50;;;;;;;;;;9932639;28;20054;-61
2022/08/22 21:16:34;;;;;;;1.73;1.05;;;;;;;;;;9945472;28;20451;-61
2022/08/22 21:21:30;;;;;;;4.60;1.40;;;;;;;;;;9952475;28;20101;-61
2022/08/22 21:26:24;;;;;;;2.72;1.02;;;;;;;;;;9952443;28;20051;-61
2022/08/22 21:31:23;;;;;;;6.25;1.50;;;;;;;;;;9938709;28;20101;-61
2022/08/22 21:36:21;;;;;;;4.03;1.40;;;;;;;;;;9922600;28;20374;-61
2022/08/22 21:41:23;;;;;;;2.17;1.27;;;;;;;;;;9954203;28;20055;-61
2022/08/22 21:46:27;;;;;;;3.33;1.30;;;;;;;;;;9952272;28;20133;-61
2022/08/22 21:51:44;;;;;;;3.65;1.33;;;;;;;;;;9934907;28;20057;-62
2022/08/22 21:56:39;;;;;;;5.22;1.92;;;;;;;;;;9947948;28;20079;-62
2022/08/22 22:01:33;;;;;;;2.75;1.50;;;;;;;;;;9942942;28;20053;-63
2022/08/22 22:06:26;;;;;;;3.05;1.58;;;;;;;;;;9936795;28;20055;-61
2022/08/22 22:11:19;;;;;;;1.20;1.10;;;;;;;;;;9939488;28;20106;-61
2022/08/22 22:16:16;;;;;;;3.83;1.30;;;;;;;;;;9935899;28;20105;-61
2022/08/22 22:21:11;;;;;;;4.23;1.40;;;;;;;;;;9962948;28;20137;-61
2022/08/22 22:26:05;;;;;;;3.38;1.60;;;;;;;;;;9969833;28;20769;-60
2022/08/22 22:30:58;;;;;;;3.35;3.03;;;;;;;;;;9975022;28;20121;-62
2022/08/22 22:35:54;;;;;;;3.97;2.90;;;;;;;;;;9939696;28;20054;-61
2022/08/22 22:40:51;;;;;;;4.38;2.97;;;;;;;;;;9908856;28;20074;-61
2022/08/22 22:45:45;;;;;;;5.70;3.42;;;;;;;;;;9936642;28;20387;-61
2022/08/22 22:50:41;;;;;;;4.28;3.88;;;;;;;;;;9928633;28;20055;-60
2022/08/22 22:55:35;;;;;;;7.45;3.08;;;;;;;;;;9946768;28;20038;-61
2022/08/22 23:00:35;;;;;;;2.80;2.15;;;;;;;;;;9931076;28;20058;-61
2022/08/22 23:05:30;;;;;;;4.90;2.50;;;;;;;;;;9944066;28;20054;-61
2022/08/22 23:10:26;;;;;;;3.22;2.30;;;;;;;;;;9945006;28;20402;-60
2022/08/22 23:15:20;;;;;;;4.50;2.50;;;;;;;;;;9946108;28;20055;-61
2022/08/22 23:20:13;;;;;;;4.35;2.17;;;;;;;;;;9951538;28;20058;-61
2022/08/22 23:25:07;;;;;;;7.03;4.05;;;;;;;;;;9949785;28;20078;-61
2022/08/22 23:30:01;;;;;;;5.53;4.28;;;;;;;;;;9953706;28;20031;-62
2022/08/22 23:34:55;;;;;;;5.20;4.70;;;;;;;;;;9951702;28;20437;-62
2022/08/22 23:39:48;;;;;;;5.10;4.60;;;;;;;;;;9950838;28;20068;-62
2022/08/22 23:44:43;;;;;;;7.20;4.45;;;;;;;;;;9963669;28;20073;-61
2022/08/22 23:49:38;;;;;;;7.65;3.97;;;;;;;;;;9946541;28;20484;-61
2022/08/22 23:54:31;;;;;;;4.40;4.00;;;;;;;;;;9952486;28;20061;-61
2022/08/22 23:59:28;;;;;;;6.70;4.25;;;;;;;;;;9971363;28;20094;-61
